sensor_id;sensor_type;location;lat;lon;timestamp;P1;durP1;ratioP1;P2;durP2;ratioP2
76807;SDS011;65758;45.458;11.062;2023-05-10T00:01:31;5.50;;;4.70;;
76807;SDS011;65758;45.458;11.062;2023-05-10T00:03:58;6.60;;;4.30;;
76807;SDS011;65758;45.458;11.062;2023-05-10T00:06:25;4.80;;;4.40;;
76807;SDS011;65758;45.458;11.062;2023-05-10T00:08:52;5.20;;;4.30;;
76807;SDS011;65758;45.458;11.062;2023-05-10T00:11:18;4.70;;;4.00;;
76807;SDS011;65758;45.458;11.062;2023-05-10T00:13:48;3.70;;;3.00;;
76807;SDS011;65758;45.458;11.062;2023-05-10T00:16:15;5.70;;;3.70;;
76807;SDS011;65758;45.458;11.062;2023-05-10T00:18:41;3.40;;;3.10;;
76807;SDS011;65758;45.458;11.062;2023-05-10T00:21:08;3.60;;;3.30;;
76807;SDS011;65758;45.458;11.062;2023-05-10T00:23:35;2.80;;;2.60;;
76807;SDS011;65758;45.458;11.062;2023-05-10T00:26:01;2.60;;;2.00;;
76807;SDS011;65758;45.458;11.062;2023-05-10T00:28:28;3.50;;;2.30;;
76807;SDS011;65758;45.458;11.062;2023-05-10T00:30:55;2.50;;;2.30;;
76807;SDS011;65758;45.458;11.062;2023-05-10T00:33:22;2.50;;;2.10;;
76807;SDS011;65758;45.458;11.062;2023-05-10T00:35:49;2.10;;;1.90;;
76807;SDS011;65758;45.458;11.062;2023-05-10T00:38:16;3.90;;;2.40;;
76807;SDS011;65758;45.458;11.062;2023-05-10T00:40:43;2.60;;;2.40;;
76807;SDS011;65758;45.458;11.062;2023-05-10T00:43:16;2.00;;;1.90;;
76807;SDS011;65758;45.458;11.062;2023-05-10T00:45:43;2.70;;;2.40;;
76807;SDS011;65758;45.458;11.062;2023-05-10T00:48:10;2.30;;;2.10;;
76807;SDS011;65758;45.458;11.062;2023-05-10T00:50:38;2.10;;;1.90;;
76807;SDS011;65758;45.458;11.062;2023-05-10T00:53:06;2.50;;;2.10;;
76807;SDS011;65758;45.458;11.062;2023-05-10T00:55:34;4.00;;;2.00;;
76807;SDS011;65758;45.458;11.062;2023-05-10T00:58:01;2.30;;;2.00;;
76807;SDS011;65758;45.458;11.062;2023-05-10T01:00:28;2.10;;;1.80;;
76807;SDS011;65758;45.458;11.062;2023-05-10T01:02:55;2.20;;;2.00;;
76807;SDS011;65758;45.458;11.062;2023-05-10T01:05:22;3.50;;;2.60;;
76807;SDS011;65758;45.458;11.062;2023-05-10T01:07:49;2.40;;;2.00;;
76807;SDS011;65758;45.458;11.062;2023-05-10T01:10:16;2.00;;;1.90;;
76807;SDS011;65758;45.458;11.062;2023-05-10T01:12:44;3.60;;;2.10;;
76807;SDS011;65758;45.458;11.062;2023-05-10T01:15:13;2.30;;;2.10;;
76807;SDS011;65758;45.458;11.062;2023-05-10T01:17:44;2.60;;;1.90;;
76807;SDS011;65758;45.458;11.062;2023-05-10T01:20:12;2.50;;;2.10;;
76807;SDS011;65758;45.458;11.062;2023-05-10T01:32:56;2.70;;;2.30;;
76807;SDS011;65758;45.458;11.062;2023-05-10T01:35:53;2.90;;;1.90;;
76807;SDS011;65758;45.458;11.062;2023-05-10T01:39:01;2.10;;;2.00;;
76807;SDS011;65758;45.458;11.062;2023-05-10T01:46:56;2.60;;;2.20;;
76807;SDS011;65758;45.458;11.062;2023-05-10T01:49:32;2.00;;;1.80;;
76807;SDS011;65758;45.458;11.062;2023-05-10T01:52:08;2.40;;;1.80;;
76807;SDS011;65758;45.458;11.062;2023-05-10T01:54:38;4.60;;;1.90;;
76807;SDS011;65758;45.458;11.062;2023-05-10T01:57:15;3.50;;;2.00;;
76807;SDS011;65758;45.458;11.062;2023-05-10T01:59:43;5.30;;;2.30;;
76807;SDS011;65758;45.458;11.062;2023-05-10T02:02:14;2.10;;;1.90;;
76807;SDS011;65758;45.458;11.062;2023-05-10T02:04:43;3.40;;;1.80;;
76807;SDS011;65758;45.458;11.062;2023-05-10T02:07:12;3.50;;;2.40;;
76807;SDS011;65758;45.458;11.062;2023-05-10T02:09:42;3.10;;;2.00;;
76807;SDS011;65758;45.458;11.062;2023-05-10T02:12:13;1.90;;;1.80;;
76807;SDS011;65758;45.458;11.062;2023-05-10T02:14:42;1.90;;;1.70;;
76807;SDS011;65758;45.458;11.062;2023-05-10T02:17:10;2.20;;;2.10;;
76807;SDS011;65758;45.458;11.062;2023-05-10T02:19:39;2.30;;;2.10;;
76807;SDS011;65758;45.458;11.062;2023-05-10T02:22:09;2.40;;;1.90;;
76807;SDS011;65758;45.458;11.062;2023-05-10T02:24:36;2.00;;;1.90;;
76807;SDS011;65758;45.458;11.062;2023-05-10T02:27:04;2.20;;;2.00;;
76807;SDS011;65758;45.458;11.062;2023-05-10T02:29:34;1.70;;;1.60;;
76807;SDS011;65758;45.458;11.062;2023-05-10T02:32:03;1.80;;;1.70;;
76807;SDS011;65758;45.458;11.062;2023-05-10T02:34:30;2.30;;;1.80;;
76807;SDS011;65758;45.458;11.062;2023-05-10T02:36:59;3.30;;;1.80;;
76807;SDS011;65758;45.458;11.062;2023-05-10T02:39:27;2.20;;;2.00;;
76807;SDS011;65758;45.458;11.062;2023-05-10T02:41:55;2.30;;;2.10;;
76807;SDS011;65758;45.458;11.062;2023-05-10T02:44:23;1.80;;;1.70;;
76807;SDS011;65758;45.458;11.062;2023-05-10T02:46:54;2.80;;;2.00;;
76807;SDS011;65758;45.458;11.062;2023-05-10T02:49:22;3.40;;;2.10;;
76807;SDS011;65758;45.458;11.062;2023-05-10T02:51:50;4.30;;;2.30;;
76807;SDS011;65758;45.458;11.062;2023-05-10T02:54:24;4.00;;;2.00;;
76807;SDS011;65758;45.458;11.062;2023-05-10T02:56:59;3.40;;;2.20;;
76807;SDS011;65758;45.458;11.062;2023-05-10T02:59:29;2.00;;;1.90;;
76807;SDS011;65758;45.458;11.062;2023-05-10T03:01:56;2.30;;;2.00;;
76807;SDS011;65758;45.458;11.062;2023-05-10T03:04:22;2.30;;;2.10;;
76807;SDS011;65758;45.458;11.062;2023-05-10T03:06:49;2.90;;;2.10;;
76807;SDS011;65758;45.458;11.062;2023-05-10T03:09:17;2.50;;;2.00;;
76807;SDS011;65758;45.458;11.062;2023-05-10T03:19:54;2.20;;;2.00;;
76807;SDS011;65758;45.458;11.062;2023-05-10T03:22:28;3.60;;;2.10;;
76807;SDS011;65758;45.458;11.062;2023-05-10T03:24:58;2.20;;;1.80;;
76807;SDS011;65758;45.458;11.062;2023-05-10T03:27:32;1.90;;;1.80;;
76807;SDS011;65758;45.458;11.062;2023-05-10T03:30:02;4.40;;;2.10;;
76807;SDS011;65758;45.458;11.062;2023-05-10T03:32:30;2.90;;;2.00;;
76807;SDS011;65758;45.458;11.062;2023-05-10T03:35:00;2.10;;;1.90;;
76807;SDS011;65758;45.458;11.062;2023-05-10T03:37:27;2.40;;;2.00;;
76807;SDS011;65758;45.458;11.062;2023-05-10T03:39:54;2.90;;;2.00;;
76807;SDS011;65758;45.458;11.062;2023-05-10T03:42:21;2.00;;;1.80;;
76807;SDS011;65758;45.458;11.062;2023-05-10T03:44:48;6.50;;;2.60;;
76807;SDS011;65758;45.458;11.062;2023-05-10T03:47:16;3.00;;;2.30;;
76807;SDS011;65758;45.458;11.062;2023-05-10T03:49:43;2.30;;;2.10;;
76807;SDS011;65758;45.458;11.062;2023-05-10T03:52:10;2.50;;;2.00;;
76807;SDS011;65758;45.458;11.062;2023-05-10T03:54:37;2.80;;;2.20;;
76807;SDS011;65758;45.458;11.062;2023-05-10T03:57:04;2.30;;;1.90;;
76807;SDS011;65758;45.458;11.062;2023-05-10T03:59:31;3.30;;;2.00;;
76807;SDS011;65758;45.458;11.062;2023-05-10T04:01:58;2.50;;;2.30;;
76807;SDS011;65758;45.458;11.062;2023-05-10T04:04:25;2.50;;;2.20;;
76807;SDS011;65758;45.458;11.062;2023-05-10T04:06:52;2.30;;;2.10;;
76807;SDS011;65758;45.458;11.062;2023-05-10T04:09:18;2.90;;;1.80;;
76807;SDS011;65758;45.458;11.062;2023-05-10T04:11:45;2.80;;;2.20;;
76807;SDS011;65758;45.458;11.062;2023-05-10T04:14:12;2.40;;;1.90;;
76807;SDS011;65758;45.458;11.062;2023-05-10T04:16:38;1.80;;;1.60;;
76807;SDS011;65758;45.458;11.062;2023-05-10T04:19:05;2.20;;;2.00;;
76807;SDS011;65758;45.458;11.062;2023-05-10T04:21:32;2.30;;;2.10;;
76807;SDS011;65758;45.458;11.062;2023-05-10T04:23:58;2.80;;;2.20;;
76807;SDS011;65758;45.458;11.062;2023-05-10T04:26:25;2.00;;;1.70;;
76807;SDS011;65758;45.458;11.062;2023-05-10T04:28:52;2.00;;;1.80;;
76807;SDS011;65758;45.458;11.062;2023-05-10T04:31:18;2.00;;;1.90;;
76807;SDS011;65758;45.458;11.062;2023-05-10T04:33:45;2.10;;;1.90;;
76807;SDS011;65758;45.458;11.062;2023-05-10T04:36:12;2.80;;;2.00;;
76807;SDS011;65758;45.458;11.062;2023-05-10T04:38:39;2.30;;;2.00;;
76807;SDS011;65758;45.458;11.062;2023-05-10T04:41:09;2.40;;;1.80;;
76807;SDS011;65758;45.458;11.062;2023-05-10T04:43:36;2.90;;;2.10;;
76807;SDS011;65758;45.458;11.062;2023-05-10T04:46:04;2.80;;;2.20;;
76807;SDS011;65758;45.458;11.062;2023-05-10T04:48:32;2.30;;;2.00;;
76807;SDS011;65758;45.458;11.062;2023-05-10T04:50:59;1.90;;;1.80;;
76807;SDS011;65758;45.458;11.062;2023-05-10T04:53:26;2.20;;;2.00;;
76807;SDS011;65758;45.458;11.062;2023-05-10T04:55:53;1.90;;;1.80;;
76807;SDS011;65758;45.458;11.062;2023-05-10T04:58:19;3.00;;;1.80;;
76807;SDS011;65758;45.458;11.062;2023-05-10T05:00:46;2.00;;;1.80;;
76807;SDS011;65758;45.458;11.062;2023-05-10T05:03:13;2.10;;;1.90;;
76807;SDS011;65758;45.458;11.062;2023-05-10T05:05:40;2.50;;;2.10;;
76807;SDS011;65758;45.458;11.062;2023-05-10T05:08:06;1.70;;;1.60;;
76807;SDS011;65758;45.458;11.062;2023-05-10T05:10:33;2.40;;;2.00;;
76807;SDS011;65758;45.458;11.062;2023-05-10T05:13:00;2.50;;;2.10;;
76807;SDS011;65758;45.458;11.062;2023-05-10T05:15:26;2.10;;;1.80;;
76807;SDS011;65758;45.458;11.062;2023-05-10T05:17:54;2.50;;;1.70;;
76807;SDS011;65758;45.458;11.062;2023-05-10T05:20:20;2.50;;;1.80;;
76807;SDS011;65758;45.458;11.062;2023-05-10T05:22:47;1.80;;;1.70;;
76807;SDS011;65758;45.458;11.062;2023-05-10T05:25:14;3.10;;;2.10;;
76807;SDS011;65758;45.458;11.062;2023-05-10T05:27:41;2.00;;;1.90;;
76807;SDS011;65758;45.458;11.062;2023-05-10T05:30:08;2.40;;;2.10;;
76807;SDS011;65758;45.458;11.062;2023-05-10T05:32:35;2.00;;;1.90;;
76807;SDS011;65758;45.458;11.062;2023-05-10T05:35:02;3.60;;;1.90;;
76807;SDS011;65758;45.458;11.062;2023-05-10T05:37:29;2.10;;;1.90;;
76807;SDS011;65758;45.458;11.062;2023-05-10T05:39:55;1.90;;;1.80;;
76807;SDS011;65758;45.458;11.062;2023-05-10T05:42:22;2.20;;;2.00;;
76807;SDS011;65758;45.458;11.062;2023-05-10T05:44:49;2.30;;;1.90;;
76807;SDS011;65758;45.458;11.062;2023-05-10T05:47:15;2.40;;;2.20;;
76807;SDS011;65758;45.458;11.062;2023-05-10T05:49:42;2.20;;;1.50;;
76807;SDS011;65758;45.458;11.062;2023-05-10T05:52:12;1.70;;;1.60;;
76807;SDS011;65758;45.458;11.062;2023-05-10T05:54:39;2.40;;;1.90;;
76807;SDS011;65758;45.458;11.062;2023-05-10T05:57:06;3.00;;;2.00;;
76807;SDS011;65758;45.458;11.062;2023-05-10T05:59:33;2.00;;;1.80;;
76807;SDS011;65758;45.458;11.062;2023-05-10T06:02:00;2.50;;;2.00;;
76807;SDS011;65758;45.458;11.062;2023-05-10T06:04:28;2.90;;;1.80;;
76807;SDS011;65758;45.458;11.062;2023-05-10T06:06:55;3.00;;;2.10;;
76807;SDS011;65758;45.458;11.062;2023-05-10T06:09:21;3.20;;;1.80;;
76807;SDS011;65758;45.458;11.062;2023-05-10T06:11:50;1.80;;;1.70;;
76807;SDS011;65758;45.458;11.062;2023-05-10T06:14:17;2.00;;;1.60;;
76807;SDS011;65758;45.458;11.062;2023-05-10T06:16:47;2.00;;;1.60;;
76807;SDS011;65758;45.458;11.062;2023-05-10T06:19:14;1.80;;;1.60;;
76807;SDS011;65758;45.458;11.062;2023-05-10T06:21:40;2.10;;;1.90;;
76807;SDS011;65758;45.458;11.062;2023-05-10T06:24:07;2.90;;;1.90;;
76807;SDS011;65758;45.458;11.062;2023-05-10T06:26:34;1.70;;;1.60;;
76807;SDS011;65758;45.458;11.062;2023-05-10T06:29:01;1.70;;;1.60;;
76807;SDS011;65758;45.458;11.062;2023-05-10T06:31:28;3.70;;;2.00;;
76807;SDS011;65758;45.458;11.062;2023-05-10T06:33:54;1.90;;;1.80;;
76807;SDS011;65758;45.458;11.062;2023-05-10T06:36:22;2.00;;;1.80;;
76807;SDS011;65758;45.458;11.062;2023-05-10T06:38:51;2.00;;;1.90;;
76807;SDS011;65758;45.458;11.062;2023-05-10T06:41:17;1.80;;;1.70;;
76807;SDS011;65758;45.458;11.062;2023-05-10T06:43:44;2.10;;;1.90;;
76807;SDS011;65758;45.458;11.062;2023-05-10T06:46:11;1.70;;;1.60;;
76807;SDS011;65758;45.458;11.062;2023-05-10T06:48:37;2.30;;;2.10;;
76807;SDS011;65758;45.458;11.062;2023-05-10T06:51:04;1.70;;;1.60;;
76807;SDS011;65758;45.458;11.062;2023-05-10T06:53:31;2.10;;;1.90;;
76807;SDS011;65758;45.458;11.062;2023-05-10T06:55:58;2.10;;;1.80;;
76807;SDS011;65758;45.458;11.062;2023-05-10T06:58:24;4.20;;;2.50;;
76807;SDS011;65758;45.458;11.062;2023-05-10T07:00:51;1.90;;;1.80;;
76807;SDS011;65758;45.458;11.062;2023-05-10T07:03:18;3.40;;;2.10;;
76807;SDS011;65758;45.458;11.062;2023-05-10T07:05:45;2.20;;;2.00;;
76807;SDS011;65758;45.458;11.062;2023-05-10T07:08:13;2.10;;;1.90;;
76807;SDS011;65758;45.458;11.062;2023-05-10T07:10:39;3.60;;;2.00;;
76807;SDS011;65758;45.458;11.062;2023-05-10T07:13:06;3.50;;;2.20;;
76807;SDS011;65758;45.458;11.062;2023-05-10T07:15:33;2.00;;;1.90;;
76807;SDS011;65758;45.458;11.062;2023-05-10T07:18:00;4.50;;;2.30;;
76807;SDS011;65758;45.458;11.062;2023-05-10T07:20:27;2.30;;;2.10;;
76807;SDS011;65758;45.458;11.062;2023-05-10T07:22:54;3.10;;;2.50;;
76807;SDS011;65758;45.458;11.062;2023-05-10T07:25:20;2.20;;;1.90;;
76807;SDS011;65758;45.458;11.062;2023-05-10T07:27:47;2.10;;;2.00;;
76807;SDS011;65758;45.458;11.062;2023-05-10T07:30:15;3.40;;;2.20;;
76807;SDS011;65758;45.458;11.062;2023-05-10T07:32:41;2.90;;;2.30;;
76807;SDS011;65758;45.458;11.062;2023-05-10T07:35:08;2.20;;;2.00;;
76807;SDS011;65758;45.458;11.062;2023-05-10T07:37:35;2.40;;;2.20;;
76807;SDS011;65758;45.458;11.062;2023-05-10T07:40:05;2.30;;;2.10;;
76807;SDS011;65758;45.458;11.062;2023-05-10T07:42:33;3.80;;;2.20;;
76807;SDS011;65758;45.458;11.062;2023-05-10T07:45:00;2.50;;;2.30;;
76807;SDS011;65758;45.458;11.062;2023-05-10T07:47:26;2.50;;;2.30;;
76807;SDS011;65758;45.458;11.062;2023-05-10T07:49:53;3.90;;;2.30;;
76807;SDS011;65758;45.458;11.062;2023-05-10T07:52:20;2.80;;;2.50;;
76807;SDS011;65758;45.458;11.062;2023-05-10T07:54:49;3.20;;;2.30;;
76807;SDS011;65758;45.458;11.062;2023-05-10T07:57:16;3.20;;;2.50;;
76807;SDS011;65758;45.458;11.062;2023-05-10T07:59:44;4.30;;;2.40;;
76807;SDS011;65758;45.458;11.062;2023-05-10T08:02:11;2.40;;;2.20;;
76807;SDS011;65758;45.458;11.062;2023-05-10T08:04:38;2.40;;;2.20;;
76807;SDS011;65758;45.458;11.062;2023-05-10T08:07:05;2.90;;;2.10;;
76807;SDS011;65758;45.458;11.062;2023-05-10T08:09:31;3.00;;;2.20;;
76807;SDS011;65758;45.458;11.062;2023-05-10T08:11:58;2.40;;;2.20;;
76807;SDS011;65758;45.458;11.062;2023-05-10T08:14:27;2.70;;;2.30;;
76807;SDS011;65758;45.458;11.062;2023-05-10T08:16:55;2.70;;;2.40;;
76807;SDS011;65758;45.458;11.062;2023-05-10T08:19:22;4.40;;;2.40;;
76807;SDS011;65758;45.458;11.062;2023-05-10T08:21:49;2.90;;;2.30;;
76807;SDS011;65758;45.458;11.062;2023-05-10T08:24:16;2.50;;;2.20;;
76807;SDS011;65758;45.458;11.062;2023-05-10T08:26:42;2.60;;;2.40;;
76807;SDS011;65758;45.458;11.062;2023-05-10T08:29:09;2.60;;;2.30;;
76807;SDS011;65758;45.458;11.062;2023-05-10T08:31:36;2.40;;;2.10;;
76807;SDS011;65758;45.458;11.062;2023-05-10T08:34:03;3.40;;;2.10;;
76807;SDS011;65758;45.458;11.062;2023-05-10T08:36:29;3.20;;;2.30;;
76807;SDS011;65758;45.458;11.062;2023-05-10T08:38:56;3.00;;;2.40;;
76807;SDS011;65758;45.458;11.062;2023-05-10T08:41:23;3.50;;;2.40;;
76807;SDS011;65758;45.458;11.062;2023-05-10T08:43:52;2.60;;;2.40;;
76807;SDS011;65758;45.458;11.062;2023-05-10T08:46:20;2.40;;;2.20;;
76807;SDS011;65758;45.458;11.062;2023-05-10T08:48:49;2.30;;;2.20;;
76807;SDS011;65758;45.458;11.062;2023-05-10T08:51:18;2.80;;;2.60;;
76807;SDS011;65758;45.458;11.062;2023-05-10T08:53:48;3.10;;;2.40;;
76807;SDS011;65758;45.458;11.062;2023-05-10T08:56:15;3.50;;;2.30;;
76807;SDS011;65758;45.458;11.062;2023-05-10T08:58:42;2.60;;;2.40;;
76807;SDS011;65758;45.458;11.062;2023-05-10T09:01:09;2.80;;;2.00;;
76807;SDS011;65758;45.458;11.062;2023-05-10T09:03:38;2.40;;;2.20;;
76807;SDS011;65758;45.458;11.062;2023-05-10T09:06:06;2.20;;;2.00;;
76807;SDS011;65758;45.458;11.062;2023-05-10T09:08:33;2.10;;;1.90;;
76807;SDS011;65758;45.458;11.062;2023-05-10T09:11:00;1.60;;;1.50;;
76807;SDS011;65758;45.458;11.062;2023-05-10T09:13:28;2.10;;;1.90;;
76807;SDS011;65758;45.458;11.062;2023-05-10T09:15:54;2.10;;;1.80;;
76807;SDS011;65758;45.458;11.062;2023-05-10T09:18:24;2.20;;;1.80;;
76807;SDS011;65758;45.458;11.062;2023-05-10T09:20:53;2.40;;;2.10;;
76807;SDS011;65758;45.458;11.062;2023-05-10T09:23:20;2.30;;;1.60;;
76807;SDS011;65758;45.458;11.062;2023-05-10T09:25:47;2.10;;;1.60;;
76807;SDS011;65758;45.458;11.062;2023-05-10T09:28:14;2.20;;;2.00;;
76807;SDS011;65758;45.458;11.062;2023-05-10T09:30:41;1.70;;;1.60;;
76807;SDS011;65758;45.458;11.062;2023-05-10T09:33:09;2.30;;;2.10;;
76807;SDS011;65758;45.458;11.062;2023-05-10T09:35:35;1.50;;;1.40;;
76807;SDS011;65758;45.458;11.062;2023-05-10T09:38:03;1.70;;;1.60;;
76807;SDS011;65758;45.458;11.062;2023-05-10T09:40:31;2.30;;;1.80;;
76807;SDS011;65758;45.458;11.062;2023-05-10T09:45:34;2.20;;;2.00;;
76807;SDS011;65758;45.458;11.062;2023-05-10T09:48:04;2.20;;;1.90;;
76807;SDS011;65758;45.458;11.062;2023-05-10T09:50:32;1.60;;;1.50;;
76807;SDS011;65758;45.458;11.062;2023-05-10T09:53:01;1.70;;;1.60;;
76807;SDS011;65758;45.458;11.062;2023-05-10T10:00:33;1.90;;;1.80;;
76807;SDS011;65758;45.458;11.062;2023-05-10T10:03:02;2.70;;;2.10;;
76807;SDS011;65758;45.458;11.062;2023-05-10T10:07:56;2.50;;;2.20;;
76807;SDS011;65758;45.458;11.062;2023-05-10T10:10:25;2.00;;;1.90;;
76807;SDS011;65758;45.458;11.062;2023-05-10T10:12:53;1.90;;;1.80;;
76807;SDS011;65758;45.458;11.062;2023-05-10T10:15:21;2.60;;;1.80;;
76807;SDS011;65758;45.458;11.062;2023-05-10T10:17:49;2.20;;;1.70;;
76807;SDS011;65758;45.458;11.062;2023-05-10T10:20:17;4.00;;;1.90;;
76807;SDS011;65758;45.458;11.062;2023-05-10T10:22:46;2.20;;;1.90;;
76807;SDS011;65758;45.458;11.062;2023-05-10T10:25:17;1.90;;;1.80;;
76807;SDS011;65758;45.458;11.062;2023-05-10T10:35:42;2.10;;;1.90;;
76807;SDS011;65758;45.458;11.062;2023-05-10T10:38:12;2.20;;;1.90;;
76807;SDS011;65758;45.458;11.062;2023-05-10T10:40:40;2.00;;;1.90;;
76807;SDS011;65758;45.458;11.062;2023-05-10T10:46:09;1.70;;;1.60;;
76807;SDS011;65758;45.458;11.062;2023-05-10T10:48:36;2.50;;;1.90;;
76807;SDS011;65758;45.458;11.062;2023-05-10T10:51:02;2.20;;;1.80;;
76807;SDS011;65758;45.458;11.062;2023-05-10T10:53:29;1.90;;;1.50;;
76807;SDS011;65758;45.458;11.062;2023-05-10T10:56:09;2.20;;;1.80;;
76807;SDS011;65758;45.458;11.062;2023-05-10T10:58:38;1.60;;;1.50;;
76807;SDS011;65758;45.458;11.062;2023-05-10T11:01:16;2.10;;;1.80;;
76807;SDS011;65758;45.458;11.062;2023-05-10T11:06:33;1.30;;;1.30;;
76807;SDS011;65758;45.458;11.062;2023-05-10T11:09:05;1.20;;;1.10;;
76807;SDS011;65758;45.458;11.062;2023-05-10T11:11:34;1.90;;;1.80;;
76807;SDS011;65758;45.458;11.062;2023-05-10T11:14:04;2.50;;;1.60;;
76807;SDS011;65758;45.458;11.062;2023-05-10T11:16:43;1.80;;;1.70;;
76807;SDS011;65758;45.458;11.062;2023-05-10T11:19:11;2.20;;;2.20;;
76807;SDS011;65758;45.458;11.062;2023-05-10T11:21:47;1.50;;;1.30;;
76807;SDS011;65758;45.458;11.062;2023-05-10T11:24:17;1.80;;;1.70;;
76807;SDS011;65758;45.458;11.062;2023-05-10T11:26:45;1.90;;;1.80;;
76807;SDS011;65758;45.458;11.062;2023-05-10T11:29:13;1.90;;;1.80;;
76807;SDS011;65758;45.458;11.062;2023-05-10T11:31:43;2.30;;;2.10;;
76807;SDS011;65758;45.458;11.062;2023-05-10T11:34:11;2.10;;;2.00;;
76807;SDS011;65758;45.458;11.062;2023-05-10T11:36:52;2.00;;;1.80;;
76807;SDS011;65758;45.458;11.062;2023-05-10T11:39:20;1.80;;;1.70;;
76807;SDS011;65758;45.458;11.062;2023-05-10T11:41:48;2.20;;;2.00;;
76807;SDS011;65758;45.458;11.062;2023-05-10T11:44:16;2.30;;;2.10;;
76807;SDS011;65758;45.458;11.062;2023-05-10T11:46:43;2.20;;;2.00;;
76807;SDS011;65758;45.458;11.062;2023-05-10T11:49:10;1.70;;;1.60;;
76807;SDS011;65758;45.458;11.062;2023-05-10T11:51:38;1.90;;;1.80;;
76807;SDS011;65758;45.458;11.062;2023-05-10T11:54:06;4.30;;;1.80;;
76807;SDS011;65758;45.458;11.062;2023-05-10T11:56:37;1.90;;;1.80;;
76807;SDS011;65758;45.458;11.062;2023-05-10T11:59:05;2.10;;;1.80;;
76807;SDS011;65758;45.458;11.062;2023-05-10T12:01:34;2.50;;;1.60;;
76807;SDS011;65758;45.458;11.062;2023-05-10T12:04:01;2.10;;;1.90;;
76807;SDS011;65758;45.458;11.062;2023-05-10T12:06:30;2.60;;;1.90;;
76807;SDS011;65758;45.458;11.062;2023-05-10T12:08:58;2.90;;;1.90;;
76807;SDS011;65758;45.458;11.062;2023-05-10T12:11:26;1.90;;;1.60;;
76807;SDS011;65758;45.458;11.062;2023-05-10T12:13:54;1.60;;;1.50;;
76807;SDS011;65758;45.458;11.062;2023-05-10T12:16:24;1.60;;;1.50;;
76807;SDS011;65758;45.458;11.062;2023-05-10T12:18:53;1.60;;;1.50;;
76807;SDS011;65758;45.458;11.062;2023-05-10T12:21:22;1.80;;;1.60;;
76807;SDS011;65758;45.458;11.062;2023-05-10T12:23:49;3.10;;;1.70;;
76807;SDS011;65758;45.458;11.062;2023-05-10T12:26:18;1.80;;;1.70;;
76807;SDS011;65758;45.458;11.062;2023-05-10T12:28:47;2.10;;;1.90;;
76807;SDS011;65758;45.458;11.062;2023-05-10T12:31:14;1.90;;;1.80;;
76807;SDS011;65758;45.458;11.062;2023-05-10T12:33:42;1.80;;;1.70;;
76807;SDS011;65758;45.458;11.062;2023-05-10T12:36:10;2.20;;;2.00;;
76807;SDS011;65758;45.458;11.062;2023-05-10T12:38:39;3.60;;;2.00;;
76807;SDS011;65758;45.458;11.062;2023-05-10T12:41:10;2.50;;;2.20;;
76807;SDS011;65758;45.458;11.062;2023-05-10T12:43:39;2.40;;;2.00;;
76807;SDS011;65758;45.458;11.062;2023-05-10T12:46:13;3.50;;;1.80;;
76807;SDS011;65758;45.458;11.062;2023-05-10T12:48:41;1.90;;;1.80;;
76807;SDS011;65758;45.458;11.062;2023-05-10T12:51:10;2.80;;;1.60;;
76807;SDS011;65758;45.458;11.062;2023-05-10T12:53:39;2.00;;;1.80;;
76807;SDS011;65758;45.458;11.062;2023-05-10T12:56:09;2.80;;;2.00;;
76807;SDS011;65758;45.458;11.062;2023-05-10T12:58:36;2.20;;;2.00;;
76807;SDS011;65758;45.458;11.062;2023-05-10T13:01:03;2.40;;;2.20;;
76807;SDS011;65758;45.458;11.062;2023-05-10T13:03:31;2.20;;;2.00;;
76807;SDS011;65758;45.458;11.062;2023-05-10T13:05:58;3.00;;;1.90;;
76807;SDS011;65758;45.458;11.062;2023-05-10T13:08:25;3.60;;;1.90;;
76807;SDS011;65758;45.458;11.062;2023-05-10T13:10:52;2.20;;;2.00;;
76807;SDS011;65758;45.458;11.062;2023-05-10T13:13:19;2.30;;;2.10;;
76807;SDS011;65758;45.458;11.062;2023-05-10T13:15:46;4.40;;;1.90;;
76807;SDS011;65758;45.458;11.062;2023-05-10T13:18:12;3.10;;;2.00;;
76807;SDS011;65758;45.458;11.062;2023-05-10T13:20:39;2.60;;;2.20;;
76807;SDS011;65758;45.458;11.062;2023-05-10T13:23:06;2.20;;;2.00;;
76807;SDS011;65758;45.458;11.062;2023-05-10T13:25:33;2.50;;;2.10;;
76807;SDS011;65758;45.458;11.062;2023-05-10T13:28:00;2.70;;;2.20;;
76807;SDS011;65758;45.458;11.062;2023-05-10T13:30:27;2.60;;;2.10;;
76807;SDS011;65758;45.458;11.062;2023-05-10T13:32:55;3.20;;;2.30;;
76807;SDS011;65758;45.458;11.062;2023-05-10T13:35:21;2.10;;;1.90;;
76807;SDS011;65758;45.458;11.062;2023-05-10T13:37:48;2.40;;;2.20;;
76807;SDS011;65758;45.458;11.062;2023-05-10T13:40:16;2.30;;;2.10;;
76807;SDS011;65758;45.458;11.062;2023-05-10T13:42:43;3.30;;;2.70;;
76807;SDS011;65758;45.458;11.062;2023-05-10T13:45:10;2.50;;;2.20;;
76807;SDS011;65758;45.458;11.062;2023-05-10T13:47:38;2.10;;;1.90;;
76807;SDS011;65758;45.458;11.062;2023-05-10T13:50:05;4.30;;;2.90;;
76807;SDS011;65758;45.458;11.062;2023-05-10T13:52:33;2.40;;;2.20;;
76807;SDS011;65758;45.458;11.062;2023-05-10T13:55:00;2.50;;;2.20;;
76807;SDS011;65758;45.458;11.062;2023-05-10T13:57:26;2.10;;;1.90;;
76807;SDS011;65758;45.458;11.062;2023-05-10T13:59:55;2.20;;;2.00;;
76807;SDS011;65758;45.458;11.062;2023-05-10T14:02:23;2.50;;;2.20;;
76807;SDS011;65758;45.458;11.062;2023-05-10T14:04:51;2.50;;;2.30;;
76807;SDS011;65758;45.458;11.062;2023-05-10T14:07:17;2.10;;;1.40;;
76807;SDS011;65758;45.458;11.062;2023-05-10T14:09:45;4.20;;;1.90;;
76807;SDS011;65758;45.458;11.062;2023-05-10T14:12:12;2.70;;;1.60;;
76807;SDS011;65758;45.458;11.062;2023-05-10T14:14:40;2.10;;;1.80;;
76807;SDS011;65758;45.458;11.062;2023-05-10T14:17:07;1.90;;;1.80;;
76807;SDS011;65758;45.458;11.062;2023-05-10T14:19:37;2.10;;;1.70;;
76807;SDS011;65758;45.458;11.062;2023-05-10T14:22:05;1.90;;;1.50;;
76807;SDS011;65758;45.458;11.062;2023-05-10T14:24:32;1.80;;;1.60;;
76807;SDS011;65758;45.458;11.062;2023-05-10T14:26:58;2.60;;;2.40;;
76807;SDS011;65758;45.458;11.062;2023-05-10T14:29:26;1.60;;;1.50;;
76807;SDS011;65758;45.458;11.062;2023-05-10T14:31:53;4.80;;;1.90;;
76807;SDS011;65758;45.458;11.062;2023-05-10T14:34:20;2.00;;;1.90;;
76807;SDS011;65758;45.458;11.062;2023-05-10T14:36:47;2.20;;;2.00;;
76807;SDS011;65758;45.458;11.062;2023-05-10T14:39:13;2.20;;;2.00;;
76807;SDS011;65758;45.458;11.062;2023-05-10T14:41:40;2.60;;;1.80;;
76807;SDS011;65758;45.458;11.062;2023-05-10T14:44:11;2.20;;;1.90;;
76807;SDS011;65758;45.458;11.062;2023-05-10T14:46:37;2.50;;;2.00;;
76807;SDS011;65758;45.458;11.062;2023-05-10T14:49:05;2.50;;;2.30;;
76807;SDS011;65758;45.458;11.062;2023-05-10T14:51:32;2.50;;;2.20;;
76807;SDS011;65758;45.458;11.062;2023-05-10T14:53:59;3.10;;;2.80;;
76807;SDS011;65758;45.458;11.062;2023-05-10T14:56:26;2.60;;;2.40;;
76807;SDS011;65758;45.458;11.062;2023-05-10T14:58:54;3.50;;;3.10;;
76807;SDS011;65758;45.458;11.062;2023-05-10T15:01:21;4.60;;;3.00;;
76807;SDS011;65758;45.458;11.062;2023-05-10T15:03:48;3.00;;;2.70;;
76807;SDS011;65758;45.458;11.062;2023-05-10T15:06:15;4.10;;;2.20;;
76807;SDS011;65758;45.458;11.062;2023-05-10T15:08:42;2.90;;;2.70;;
76807;SDS011;65758;45.458;11.062;2023-05-10T15:11:09;2.70;;;2.50;;
76807;SDS011;65758;45.458;11.062;2023-05-10T15:13:36;2.90;;;2.70;;
76807;SDS011;65758;45.458;11.062;2023-05-10T15:16:03;3.00;;;2.70;;
76807;SDS011;65758;45.458;11.062;2023-05-10T15:18:29;3.00;;;2.70;;
76807;SDS011;65758;45.458;11.062;2023-05-10T15:20:56;3.50;;;3.20;;
76807;SDS011;65758;45.458;11.062;2023-05-10T15:23:24;3.00;;;2.60;;
76807;SDS011;65758;45.458;11.062;2023-05-10T15:25:50;2.40;;;2.10;;